Time;durP1;ratioP1;P1;durP2;ratioP2;P2;SDS_P1;SDS_P2;PMS_P1;PMS_P2;Temp;Humidity;BMP_temperature;BMP_pressure;BME280_temperature;BME280_humidity;BME280_pressure;Samples;Min_cycle;Max_cycle;Signal;HPM_P1;HPM_P2
2022/04/08 00:02:17;;;;;;;0.77;0.20;;;8.30;99.90;;;;;;5131350;27;20294;-57
2022/04/08 00:05:01;;;;;;;0.47;0.20;;;8.30;99.90;;;;;;5132310;27;20237;-57
2022/04/08 00:07:46;;;;;;;0.93;0.10;;;8.30;99.90;;;;;;5132766;27;20267;-63
2022/04/08 00:10:30;;;;;;;2.60;0.50;;;8.30;99.90;;;;;;5127874;27;20187;-60
2022/04/08 00:13:17;;;;;;;0.20;0.10;;;8.30;99.90;;;;;;5130905;27;20179;-59
2022/04/08 00:16:02;;;;;;;0.13;0.13;;;8.30;99.90;;;;;;5132594;27;20334;-62
2022/04/08 00:18:47;;;;;;;0.53;0.20;;;8.40;99.90;;;;;;5132893;27;20195;-60
2022/04/08 00:21:32;;;;;;;0.10;0.10;;;8.30;99.90;;;;;;5132709;27;20222;-62
2022/04/08 00:24:17;;;;;;;0.40;0.10;;;8.30;99.90;;;;;;5138464;27;20198;-56
2022/04/08 00:27:03;;;;;;;1.30;0.30;;;8.30;99.90;;;;;;5144495;27;20247;-53
2022/04/08 00:29:47;;;;;;;1.40;0.47;;;8.20;99.90;;;;;;5144838;27;20211;-56
2022/04/08 00:32:33;;;;;;;0.10;0.10;;;8.20;99.90;;;;;;5141946;27;20198;-56
2022/04/08 00:35:18;;;;;;;0.93;0.30;;;8.20;99.90;;;;;;5144259;27;20218;-62
2022/04/08 00:38:02;;;;;;;1.70;0.53;;;8.20;99.90;;;;;;5144721;27;20198;-64
2022/04/08 00:40:46;;;;;;;0.23;0.20;;;8.20;99.90;;;;;;5141861;27;20268;-60
2022/04/08 00:43:35;;;;;;;0.23;0.10;;;8.30;99.90;;;;;;5144747;27;20211;-54
2022/04/08 00:46:20;;;;;;;0.47;0.20;;;8.20;99.90;;;;;;5143564;27;20258;-58
2022/04/08 00:49:07;;;;;;;0.87;0.10;;;8.20;99.90;;;;;;5142159;27;20199;-58
2022/04/08 00:51:51;;;;;;;0.47;0.20;;;8.20;99.90;;;;;;5144599;27;20252;-58
2022/04/08 00:54:37;;;;;;;0.10;0.10;;;8.20;99.90;;;;;;5142325;27;20217;-60
2022/04/08 00:57:23;;;;;;;0.40;0.20;;;8.20;99.90;;;;;;5143464;27;20192;-54
2022/04/08 01:00:09;;;;;;;0.20;0.20;;;8.20;99.90;;;;;;5148963;27;20229;-56
2022/04/08 01:02:54;;;;;;;1.50;0.10;;;8.30;99.90;;;;;;5145624;27;20379;-62
2022/04/08 01:05:38;;;;;;;0.10;0.00;;;8.30;99.90;;;;;;5148174;27;20275;-65
2022/04/08 01:08:23;;;;;;;0.37;0.37;;;8.30;99.90;;;;;;5148439;27;20198;-64
2022/04/08 01:11:08;;;;;;;0.17;0.07;;;8.30;99.90;;;;;;5145393;27;20186;-56
2022/04/08 01:13:52;;;;;;;0.40;0.40;;;8.30;99.90;;;;;;5148550;27;20191;-56
2022/04/08 01:16:37;;;;;;;0.30;0.30;;;8.30;99.90;;;;;;5147223;27;20199;-60
2022/04/08 01:19:22;;;;;;;0.00;0.00;;;8.30;99.90;;;;;;5146127;27;20547;-60
2022/04/08 01:22:06;;;;;;;0.13;0.13;;;8.30;99.90;;;;;;5148486;27;20261;-52
2022/04/08 01:25:07;;;;;;;0.27;0.27;;;8.20;99.90;;;;;;5145678;27;20275;-57
2022/04/08 01:27:51;;;;;;;0.03;0.03;;;8.20;99.90;;;;;;5146181;27;20235;-55
2022/04/08 01:30:36;;;;;;;0.70;0.27;;;8.10;99.90;;;;;;5148097;27;20248;-63
2022/04/08 01:33:20;;;;;;;1.30;0.30;;;8.10;99.90;;;;;;5145304;27;20234;-67
2022/04/08 01:36:05;;;;;;;3.17;0.30;;;8.10;99.90;;;;;;5147134;27;20224;-63
2022/04/08 01:38:49;;;;;;;1.83;0.27;;;8.10;99.90;;;;;;5148653;27;20187;-65
2022/04/08 01:41:33;;;;;;;0.30;0.20;;;8.10;99.90;;;;;;5145132;27;20227;-61
2022/04/08 01:44:18;;;;;;;0.47;0.30;;;8.00;99.90;;;;;;5148570;27;20365;-66
2022/04/08 01:47:03;;;;;;;2.67;0.40;;;8.10;99.90;;;;;;5147534;27;20183;-63
2022/04/08 01:49:48;;;;;;;0.20;0.20;;;8.10;99.90;;;;;;5145477;27;20194;-62
2022/04/08 01:52:32;;;;;;;0.20;0.20;;;8.10;99.90;;;;;;5148627;27;20261;-62
2022/04/08 01:55:18;;;;;;;0.43;0.10;;;8.00;99.90;;;;;;5146076;27;20216;-65
2022/04/08 01:58:02;;;;;;;0.30;0.30;;;8.00;99.90;;;;;;5146768;27;20194;-58
2022/04/08 02:00:47;;;;;;;2.43;0.20;;;8.00;99.90;;;;;;5148294;27;20280;-58
2022/04/08 02:03:31;;;;;;;0.10;0.10;;;8.00;99.90;;;;;;5146316;27;20194;-60
2022/04/08 02:06:16;;;;;;;0.30;0.10;;;8.10;99.90;;;;;;5146981;27;20187;-55
2022/04/08 02:09:01;;;;;;;0.23;0.23;;;8.10;99.90;;;;;;5146901;27;20272;-64
2022/04/08 02:11:45;;;;;;;0.03;0.03;;;8.10;99.90;;;;;;5145103;27;20199;-59
2022/04/08 02:14:30;;;;;;;0.60;0.23;;;8.10;99.90;;;;;;5147761;27;20311;-50
2022/04/08 02:17:14;;;;;;;0.30;0.30;;;8.10;99.90;;;;;;5146328;27;20201;-55
2022/04/08 02:19:58;;;;;;;0.30;0.30;;;8.20;99.90;;;;;;5144483;27;20240;-54
2022/04/08 02:22:43;;;;;;;0.30;0.30;;;8.10;99.90;;;;;;5147554;27;20186;-53
2022/04/08 02:25:27;;;;;;;0.37;0.27;;;8.20;99.90;;;;;;5144905;27;20214;-53
2022/04/08 02:28:12;;;;;;;1.40;0.20;;;8.20;99.90;;;;;;5146815;27;20567;-58
2022/04/08 02:30:57;;;;;;;0.53;0.20;;;8.10;99.90;;;;;;5148252;27;20218;-64
2022/04/08 02:33:41;;;;;;;0.10;0.10;;;8.10;99.90;;;;;;5144748;27;20192;-49
2022/04/08 02:36:27;;;;;;;0.30;0.10;;;8.10;99.90;;;;;;5146927;27;20191;-51
2022/04/08 02:39:11;;;;;;;0.47;0.47;;;8.00;99.90;;;;;;5148002;27;20217;-55
2022/04/08 02:41:57;;;;;;;2.30;0.17;;;8.00;99.90;;;;;;5144400;27;20311;-59
2022/04/08 02:44:41;;;;;;;1.37;0.10;;;8.00;99.90;;;;;;5147545;27;20300;-60
2022/04/08 02:47:26;;;;;;;0.10;0.10;;;7.90;99.90;;;;;;5146497;27;20320;-61
2022/04/08 02:50:11;;;;;;;0.30;0.23;;;7.80;99.90;;;;;;5145052;27;20247;-55
2022/04/08 02:52:56;;;;;;;0.40;0.20;;;7.80;99.90;;;;;;5147842;27;20195;-50
2022/04/08 02:55:40;;;;;;;0.17;0.17;;;7.80;99.90;;;;;;5145970;27;20244;-63
2022/04/08 02:58:27;;;;;;;1.73;0.50;;;7.80;99.90;;;;;;5146520;27;20243;-58
2022/04/08 03:01:11;;;;;;;0.30;0.20;;;7.80;99.90;;;;;;5147329;27;20264;-59
2022/04/08 03:03:55;;;;;;;0.20;0.10;;;7.80;99.90;;;;;;5144934;27;20210;-53
2022/04/08 03:06:39;;;;;;;0.40;0.10;;;7.90;99.90;;;;;;5145968;27;20276;-53
2022/04/08 03:09:23;;;;;;;0.10;0.10;;;7.80;99.90;;;;;;5146576;27;20194;-60
2022/04/08 03:12:08;;;;;;;0.43;0.30;;;7.70;99.90;;;;;;5144120;27;20213;-60
2022/04/08 03:14:52;;;;;;;0.10;0.10;;;7.80;99.90;;;;;;5145941;27;20236;-57
2022/04/08 03:17:37;;;;;;;0.20;0.20;;;7.80;99.90;;;;;;5145565;27;20282;-62
2022/04/08 03:20:21;;;;;;;0.17;0.17;;;7.80;99.90;;;;;;5143610;27;20214;-67
2022/04/08 03:23:06;;;;;;;1.23;0.10;;;7.80;99.90;;;;;;5146690;27;20199;-64
2022/04/08 03:25:50;;;;;;;0.30;0.00;;;7.80;99.90;;;;;;5144295;27;20248;-66
2022/04/08 03:28:34;;;;;;;0.20;0.13;;;7.70;99.90;;;;;;5145375;27;20244;-55
2022/04/08 03:31:18;;;;;;;0.87;0.20;;;7.60;99.90;;;;;;5146869;27;20217;-54
2022/04/08 03:34:03;;;;;;;0.20;0.10;;;7.60;99.90;;;;;;5143381;27;20199;-62
2022/04/08 03:36:47;;;;;;;0.20;0.13;;;7.70;99.90;;;;;;5145676;27;20190;-63
2022/04/08 03:39:32;;;;;;;2.17;0.30;;;7.60;99.90;;;;;;5146341;27;20194;-61
2022/04/08 03:42:16;;;;;;;0.37;0.10;;;7.60;99.90;;;;;;5143332;27;20222;-64
2022/04/08 03:45:01;;;;;;;1.70;0.20;;;7.60;99.90;;;;;;5146006;27;20243;-59
2022/04/08 03:47:47;;;;;;;0.30;0.30;;;7.70;99.90;;;;;;5144610;27;20195;-58
2022/04/08 03:50:31;;;;;;;1.37;0.30;;;7.80;99.90;;;;;;5143588;27;20183;-56
2022/04/08 03:53:16;;;;;;;0.00;0.00;;;7.70;99.90;;;;;;5146107;27;20207;-54
2022/04/08 03:56:02;;;;;;;1.90;0.20;;;7.70;99.90;;;;;;5143798;27;20194;-53
2022/04/08 03:58:46;;;;;;;1.23;0.13;;;7.60;99.90;;;;;;5144620;27;20187;-64
2022/04/08 04:01:32;;;;;;;1.83;0.30;;;7.60;99.90;;;;;;5145967;27;20241;-52
2022/04/08 04:04:17;;;;;;;2.20;0.63;;;7.60;99.90;;;;;;5143248;27;20211;-51
2022/04/08 04:07:01;;;;;;;0.50;0.20;;;7.60;99.90;;;;;;5145548;27;20198;-60
2022/04/08 04:09:46;;;;;;;0.17;0.17;;;7.50;99.90;;;;;;5145615;27;20336;-53
2022/04/08 04:12:31;;;;;;;0.07;0.07;;;7.40;99.90;;;;;;5143130;27;20191;-54
2022/04/08 04:15:15;;;;;;;0.30;0.30;;;7.30;99.90;;;;;;5146041;27;20202;-54
2022/04/08 04:18:00;;;;;;;0.20;0.20;;;7.20;99.90;;;;;;5144582;27;20198;-53
2022/04/08 04:20:44;;;;;;;0.10;0.10;;;7.10;99.90;;;;;;5143207;27;20218;-48
2022/04/08 04:23:29;;;;;;;0.07;0.07;;;7.10;99.90;;;;;;5145987;27;20259;-61
2022/04/08 04:26:13;;;;;;;0.57;0.30;;;7.10;99.90;;;;;;5142804;27;20217;-59
2022/04/08 04:28:57;;;;;;;0.10;0.10;;;7.10;99.90;;;;;;5144821;27;20332;-59
2022/04/08 04:31:41;;;;;;;3.47;0.17;;;7.10;99.90;;;;;;5146145;27;20189;-60
2022/04/08 04:34:26;;;;;;;0.10;0.10;;;7.10;99.90;;;;;;5147130;27;20202;-56
2022/04/08 04:37:11;;;;;;;0.57;0.40;;;7.10;99.90;;;;;;5149802;27;20259;-55
2022/04/08 04:39:55;;;;;;;0.10;0.10;;;7.10;99.90;;;;;;5149663;27;20210;-61
2022/04/08 04:42:39;;;;;;;1.03;0.30;;;7.10;99.90;;;;;;5146771;27;20289;-51
2022/04/08 04:45:24;;;;;;;0.57;0.10;;;7.10;99.90;;;;;;5149438;27;20191;-52
2022/04/08 04:48:12;;;;;;;0.10;0.07;;;7.20;99.90;;;;;;5148106;27;20191;-53
2022/04/08 04:50:57;;;;;;;2.57;0.47;;;7.20;99.90;;;;;;5143199;27;20180;-57
2022/04/08 04:53:42;;;;;;;0.10;0.10;;;7.20;99.90;;;;;;5134948;27;20187;-53
2022/04/08 04:56:26;;;;;;;0.20;0.20;;;7.20;99.90;;;;;;5137918;27;20241;-57
2022/04/08 04:59:11;;;;;;;1.70;0.17;;;7.20;99.90;;;;;;5131635;27;20183;-52
2022/04/08 05:01:56;;;;;;;2.27;0.10;;;7.20;99.90;;;;;;5139533;27;20226;-51
2022/04/08 05:04:40;;;;;;;0.17;0.17;;;7.20;99.90;;;;;;5136809;27;20262;-49
2022/04/08 05:07:25;;;;;;;0.93;0.30;;;7.20;99.90;;;;;;5137414;27;20188;-48
2022/04/08 05:10:09;;;;;;;2.37;0.10;;;7.20;99.90;;;;;;5136515;27;20179;-58
2022/04/08 05:12:54;;;;;;;0.10;0.10;;;7.10;99.90;;;;;;5134761;27;20275;-62
2022/04/08 05:15:42;;;;;;;0.40;0.30;;;7.10;99.90;;;;;;5135735;27;20291;-54
2022/04/08 05:18:27;;;;;;;1.07;0.13;;;7.20;99.90;;;;;;5128597;27;20183;-57
2022/04/08 05:21:11;;;;;;;2.47;0.30;;;7.20;99.90;;;;;;5126724;27;20231;-55
2022/04/08 05:23:56;;;;;;;0.10;0.10;;;7.20;99.90;;;;;;5138400;27;20200;-55
2022/04/08 05:26:40;;;;;;;0.20;0.10;;;7.20;99.90;;;;;;5136809;27;20211;-55
2022/04/08 05:29:25;;;;;;;0.33;0.30;;;7.20;99.90;;;;;;5137265;27;20248;-57
2022/04/08 05:32:10;;;;;;;1.80;0.20;;;7.30;99.90;;;;;;5136601;27;20261;-54
2022/04/08 05:34:54;;;;;;;0.33;0.30;;;7.30;99.90;;;;;;5103444;28;20195;-54
2022/04/08 05:37:43;;;;;;;0.30;0.07;;;7.40;99.90;;;;;;5106407;28;20199;-57
2022/04/08 05:40:27;;;;;;;0.20;0.20;;;7.50;99.90;;;;;;5105784;28;20228;-61
2022/04/08 05:43:11;;;;;;;0.03;0.03;;;7.50;99.90;;;;;;5104246;28;20192;-62
2022/04/08 05:45:56;;;;;;;1.20;0.37;;;7.60;99.90;;;;;;5107044;28;20196;-51
2022/04/08 05:48:41;;;;;;;2.10;0.10;;;7.70;99.90;;;;;;5105247;28;20297;-62
2022/04/08 05:51:25;;;;;;;2.53;0.30;;;7.70;99.90;;;;;;5104750;28;20203;-57
2022/04/08 05:54:09;;;;;;;0.00;0.00;;;7.70;99.90;;;;;;5107362;28;20200;-59
2022/04/08 05:56:53;;;;;;;1.20;0.20;;;7.80;99.90;;;;;;5104417;28;20208;-58
2022/04/08 05:59:39;;;;;;;0.13;0.13;;;7.70;99.90;;;;;;5105286;28;20192;-60
2022/04/08 06:02:24;;;;;;;0.10;0.10;;;7.70;99.90;;;;;;5107206;28;20220;-60
2022/04/08 06:05:09;;;;;;;0.57;0.13;;;7.80;99.90;;;;;;5103940;28;20192;-59
2022/04/08 06:07:55;;;;;;;0.00;0.00;;;7.80;99.90;;;;;;5105900;28;20246;-53
2022/04/08 06:10:40;;;;;;;0.10;0.10;;;7.80;99.90;;;;;;5105915;28;20180;-61
2022/04/08 06:13:26;;;;;;;0.13;0.13;;;7.80;99.90;;;;;;5103983;28;20276;-59
2022/04/08 06:16:10;;;;;;;0.30;0.20;;;7.90;99.90;;;;;;5107441;27;20190;-61
2022/04/08 06:18:55;;;;;;;0.27;0.20;;;7.90;99.90;;;;;;5130560;27;20312;-63
2022/04/08 06:21:40;;;;;;;1.13;0.10;;;8.00;99.90;;;;;;5123861;27;20223;-54
2022/04/08 06:24:24;;;;;;;0.53;0.20;;;8.10;99.90;;;;;;5126558;27;20187;-63
2022/04/08 06:27:09;;;;;;;0.10;0.10;;;8.20;99.90;;;;;;5124449;27;20188;-59
2022/04/08 06:29:53;;;;;;;1.23;0.30;;;8.30;99.90;;;;;;5125332;27;20183;-54
2022/04/08 06:32:38;;;;;;;1.27;0.10;;;8.40;99.90;;;;;;5116410;27;20236;-59
2022/04/08 06:35:22;;;;;;;0.63;0.30;;;8.30;99.90;;;;;;5126412;27;20226;-57
2022/04/08 06:38:07;;;;;;;2.33;0.10;;;8.30;99.90;;;;;;5125972;27;20187;-61
2022/04/08 06:40:52;;;;;;;0.20;0.20;;;8.30;99.90;;;;;;5126411;27;20396;-59
2022/04/08 06:43:36;;;;;;;1.70;0.20;;;8.30;99.90;;;;;;5118893;27;20187;-56
2022/04/08 06:46:22;;;;;;;0.10;0.10;;;8.30;99.90;;;;;;5147488;27;20187;-59
2022/04/08 06:49:06;;;;;;;2.00;0.20;;;8.20;99.90;;;;;;5127713;27;20227;-57
2022/04/08 06:51:53;;;;;;;0.30;0.10;;;8.30;99.90;;;;;;5123703;27;20223;-60
2022/04/08 06:54:37;;;;;;;0.67;0.20;;;8.30;99.90;;;;;;5120113;27;20246;-55
2022/04/08 06:57:21;;;;;;;0.30;0.10;;;8.40;99.90;;;;;;5102998;28;20204;-58
2022/04/08 07:00:11;;;;;;;1.83;0.10;;;8.50;99.90;;;;;;5121576;27;20225;-51
2022/04/08 07:02:55;;;;;;;0.20;0.20;;;8.50;99.90;;;;;;5135802;27;20245;-57
2022/04/08 07:05:39;;;;;;;0.07;0.07;;;8.50;99.90;;;;;;5122702;27;20194;-55
2022/04/08 07:08:23;;;;;;;0.30;0.30;;;8.50;99.90;;;;;;5124270;27;20625;-56
2022/04/08 07:11:08;;;;;;;0.77;0.20;;;8.60;99.90;;;;;;5125756;27;20280;-54
2022/04/08 07:13:52;;;;;;;0.03;0.03;;;8.60;99.90;;;;;;5122857;27;20285;-56
2022/04/08 07:16:36;;;;;;;0.33;0.30;;;8.60;99.90;;;;;;5125162;27;20199;-52
2022/04/08 07:19:21;;;;;;;2.40;0.20;;;8.70;99.90;;;;;;5124600;27;20194;-55
2022/04/08 07:22:05;;;;;;;0.93;0.40;;;8.80;99.90;;;;;;5123343;27;20226;-55
2022/04/08 07:24:52;;;;;;;3.07;0.20;;;8.90;99.90;;;;;;5126474;27;20264;-52
2022/04/08 07:27:43;;;;;;;0.00;0.00;;;9.10;99.90;;;;;;5123706;27;20249;-58
2022/04/08 07:30:28;;;;;;;0.00;0.00;;;8.90;99.90;;;;;;5123440;27;20207;-57
2022/04/08 07:33:12;;;;;;;3.00;0.40;;;9.10;99.90;;;;;;5125822;27;20249;-61
2022/04/08 07:35:58;;;;;;;0.93;0.03;;;9.30;99.90;;;;;;5116938;27;20300;-54
2022/04/08 07:38:43;;;;;;;0.30;0.30;;;9.50;99.90;;;;;;5129638;27;20183;-55
2022/04/08 07:41:28;;;;;;;0.67;0.30;;;9.50;99.80;;;;;;5135205;27;20281;-56
2022/04/08 07:44:12;;;;;;;0.83;0.30;;;9.50;99.90;;;;;;5129456;27;20277;-61
2022/04/08 07:46:57;;;;;;;4.43;0.47;;;9.40;99.70;;;;;;5124569;27;20191;-58
2022/04/08 07:49:42;;;;;;;0.10;0.10;;;9.30;99.90;;;;;;5122880;27;20280;-60
2022/04/08 07:52:27;;;;;;;0.53;0.00;;;9.60;99.90;;;;;;5154687;27;20264;-62
2022/04/08 07:55:12;;;;;;;0.43;0.23;;;9.70;99.70;;;;;;5145418;27;20240;-59
2022/04/08 07:57:57;;;;;;;1.23;0.20;;;9.70;99.30;;;;;;5122529;27;20201;-55
2022/04/08 08:00:41;;;;;;;0.00;0.00;;;9.80;98.90;;;;;;5108052;27;20300;-57
2022/04/08 08:03:25;;;;;;;1.03;0.23;;;9.60;98.10;;;;;;5104274;28;20204;-56
2022/04/08 08:06:11;;;;;;;0.37;0.20;;;9.60;98.40;;;;;;5100652;28;20227;-59
2022/04/08 08:08:55;;;;;;;1.70;0.10;;;9.80;98.40;;;;;;5102484;28;20199;-60
2022/04/08 08:11:40;;;;;;;0.10;0.10;;;9.80;97.40;;;;;;5111645;27;20264;-57
2022/04/08 08:14:24;;;;;;;0.83;0.43;;;9.70;97.60;;;;;;5140333;27;20199;-65
2022/04/08 08:17:09;;;;;;;1.90;0.40;;;9.80;97.90;;;;;;5144869;27;20219;-61
2022/04/08 08:19:53;;;;;;;0.83;0.10;;;9.90;97.70;;;;;;5108792;27;20200;-58
2022/04/08 08:22:38;;;;;;;0.57;0.10;;;9.70;96.90;;;;;;5150922;27;20257;-60
2022/04/08 08:25:23;;;;;;;0.30;0.20;;;9.90;96.80;;;;;;5131956;27;20194;-57
2022/04/08 08:28:07;;;;;;;1.30;0.30;;;9.70;96.30;;;;;;5133856;27;20226;-59
2022/04/08 08:30:52;;;;;;;2.63;0.10;;;9.90;96.40;;;;;;5122164;27;20353;-61
2022/04/08 08:33:36;;;;;;;0.20;0.20;;;10.00;95.30;;;;;;5125598;28;20199;-61
2022/04/08 08:36:22;;;;;;;0.17;0.17;;;10.20;95.00;;;;;;5125528;27;20262;-62
2022/04/08 08:39:06;;;;;;;0.77;0.17;;;10.30;95.20;;;;;;5122307;27;20204;-57
2022/04/08 08:41:51;;;;;;;0.70;0.20;;;10.20;94.90;;;;;;5144129;27;20241;-62
2022/04/08 08:44:36;;;;;;;0.57;0.27;;;10.10;94.60;;;;;;5142788;27;20202;-56
2022/04/08 08:47:21;;;;;;;0.07;0.00;;;10.20;94.50;;;;;;5145310;27;20193;-57
2022/04/08 08:50:07;;;;;;;0.70;0.20;;;10.30;94.60;;;;;;5145096;27;20186;-61
2022/04/08 08:52:52;;;;;;;2.00;0.37;;;10.50;94.90;;;;;;5143370;27;20187;-59
2022/04/08 08:55:36;;;;;;;0.27;0.27;;;10.20;93.80;;;;;;5145927;27;20207;-62
2022/04/08 08:58:21;;;;;;;0.00;0.00;;;10.10;93.50;;;;;;5144258;27;20246;-59
2022/04/08 09:01:09;;;;;;;0.17;0.13;;;10.30;93.30;;;;;;5144174;27;20268;-59
2022/04/08 09:03:54;;;;;;;0.23;0.00;;;10.10;92.90;;;;;;5145905;27;20220;-54
2022/04/08 09:06:42;;;;;;;0.63;0.20;;;10.10;92.80;;;;;;5143719;27;20214;-53
2022/04/08 09:09:31;;;;;;;0.10;0.10;;;10.30;93.40;;;;;;5144817;27;20195;-63
2022/04/08 09:12:16;;;;;;;1.03;0.30;;;10.60;93.00;;;;;;5146288;27;20214;-54
2022/04/08 09:15:04;;;;;;;0.10;0.10;;;10.30;93.70;;;;;;5142472;27;20195;-64
2022/04/08 09:17:48;;;;;;;1.70;0.10;;;10.30;93.70;;;;;;5144558;27;20295;-66
2022/04/08 09:20:39;;;;;;;0.47;0.40;;;10.70;94.30;;;;;;5147644;27;20360;-63
2022/04/08 09:23:24;;;;;;;0.10;0.10;;;11.20;94.70;;;;;;5145500;27;20239;-52
2022/04/08 09:26:14;;;;;;;0.20;0.10;;;10.60;95.00;;;;;;5148241;27;20191;-55
2022/04/08 09:29:01;;;;;;;0.27;0.23;;;10.30;95.80;;;;;;5147574;27;20256;-59
2022/04/08 09:31:49;;;;;;;0.70;0.10;;;10.30;96.70;;;;;;5146386;27;20581;-57
2022/04/08 09:34:33;;;;;;;0.20;0.20;;;10.40;97.60;;;;;;5148731;27;20186;-61
2022/04/08 09:37:18;;;;;;;0.37;0.10;;;10.30;97.80;;;;;;5146404;27;20199;-64
2022/04/08 09:40:05;;;;;;;1.60;0.20;;;10.00;97.90;;;;;;5146676;27;20226;-64
2022/04/08 09:42:49;;;;;;;0.10;0.10;;;9.60;98.30;;;;;;5148685;27;20269;-63
2022/04/08 09:45:35;;;;;;;0.10;0.10;;;9.60;99.20;;;;;;5146449;27;20222;-61
2022/04/08 09:48:19;;;;;;;0.20;0.20;;;9.70;99.80;;;;;;5147474;27;20203;-58
2022/04/08 09:51:09;;;;;;;0.40;0.20;;;9.90;99.60;;;;;;5148896;27;20279;-64
2022/04/08 09:53:55;;;;;;;0.23;0.10;;;9.70;99.80;;;;;;5145167;27;20190;-63
2022/04/08 09:56:43;;;;;;;1.47;0.40;;;9.60;99.90;;;;;;5147670;27;20284;-64
2022/04/08 09:59:35;;;;;;;0.40;0.20;;;9.70;99.90;;;;;;5148324;27;20276;-68
2022/04/08 10:02:20;;;;;;;1.77;0.57;;;9.80;99.90;;;;;;5144396;27;20227;-61
2022/04/08 10:05:07;;;;;;;0.57;0.10;;;9.70;99.90;;;;;;5147863;27;20287;-63
2022/04/08 10:07:54;;;;;;;0.27;0.27;;;9.30;99.90;;;;;;5147410;27;20187;-68
2022/04/08 10:10:45;;;;;;;0.20;0.20;;;9.30;99.90;;;;;;5144609;27;20202;-64
2022/04/08 10:13:59;;;;;;;0.10;0.10;;;9.20;99.90;;;;;;5148150;27;20249;-60
2022/04/08 10:16:45;;;;;;;0.10;0.10;;;9.00;99.90;;;;;;5147953;27;20199;-65
2022/04/08 10:19:30;;;;;;;0.77;0.20;;;9.00;99.90;;;;;;5145179;27;20198;-55
2022/04/08 10:22:20;;;;;;;1.93;0.60;;;9.10;99.90;;;;;;5147038;27;20222;-61
2022/04/08 10:25:14;;;;;;;0.20;0.00;;;9.10;99.90;;;;;;5146416;27;20202;-64
2022/04/08 10:27:59;;;;;;;0.30;0.30;;;9.40;99.90;;;;;;5145016;27;20195;-67
2022/04/08 10:30:49;;;;;;;0.47;0.47;;;8.70;99.90;;;;;;5146107;27;20198;-61
2022/04/08 10:33:48;;;;;;;1.50;0.20;;;8.60;99.90;;;;;;5146221;27;20241;-60
2022/04/08 10:36:33;;;;;;;0.50;0.20;;;8.70;99.90;;;;;;5144346;27;20198;-63
2022/04/08 10:39:23;;;;;;;0.50;0.20;;;8.80;99.90;;;;;;5147967;27;20244;-56
2022/04/08 10:42:22;;;;;;;0.33;0.17;;;9.00;99.90;;;;;;5145247;27;20295;-59
2022/04/08 10:45:14;;;;;;;0.00;0.00;;;8.80;99.90;;;;;;5143875;27;20195;-59
2022/04/08 10:48:14;;;;;;;0.87;0.40;;;8.80;99.90;;;;;;5147252;27;20209;-58
2022/04/08 10:51:18;;;;;;;2.53;0.10;;;8.80;99.90;;;;;;5145742;27;20238;-58
2022/04/08 10:54:04;;;;;;;1.20;0.60;;;8.50;99.90;;;;;;5144238;27;20191;-57
2022/04/08 10:56:58;;;;;;;0.20;0.10;;;8.50;99.90;;;;;;5146414;27;20247;-53
2022/04/08 10:59:52;;;;;;;0.10;0.10;;;8.60;99.90;;;;;;5146469;27;20214;-59
2022/04/08 11:02:37;;;;;;;0.17;0.17;;;8.80;99.90;;;;;;5143884;27;20260;-52
2022/04/08 11:05:22;;;;;;;0.20;0.20;;;8.90;99.90;;;;;;5146550;27;20190;-58
2022/04/08 11:08:07;;;;;;;0.00;0.00;;;8.80;99.90;;;;;;5145027;27;20244;-61
2022/04/08 11:10:59;;;;;;;0.10;0.10;;;8.90;99.90;;;;;;5143853;27;20198;-51
2022/04/08 11:13:55;;;;;;;0.17;0.17;;;9.00;99.90;;;;;;5146802;27;20224;-64
2022/04/08 11:16:40;;;;;;;0.10;0.10;;;9.00;99.90;;;;;;5144520;27;20195;-58
2022/04/08 11:19:25;;;;;;;4.20;0.30;;;9.20;99.90;;;;;;5143985;27;20228;-61
2022/04/08 11:22:13;;;;;;;3.20;0.10;;;9.50;99.90;;;;;;5146915;27;20218;-63
2022/04/08 11:24:59;;;;;;;0.20;0.20;;;9.70;99.90;;;;;;5143611;27;20260;-59
2022/04/08 11:27:43;;;;;;;0.10;0.10;;;9.60;99.90;;;;;;5145346;27;20202;-65
2022/04/08 11:30:29;;;;;;;0.10;0.10;;;9.70;99.90;;;;;;5146988;27;20230;-56
2022/04/08 11:33:16;;;;;;;0.10;0.10;;;9.90;99.90;;;;;;5142926;27;20198;-55
2022/04/08 11:36:03;;;;;;;0.20;0.20;;;10.20;99.90;;;;;;5145482;27;20246;-66
2022/04/08 11:38:47;;;;;;;0.20;0.20;;;10.20;99.90;;;;;;5146373;27;20271;-62
2022/04/08 11:41:32;;;;;;;0.40;0.37;;;9.90;99.90;;;;;;5142711;27;20238;-58
2022/04/08 11:44:17;;;;;;;2.67;0.30;;;9.80;99.90;;;;;;5146133;27;20198;-58
2022/04/08 11:47:08;;;;;;;1.80;0.63;;;9.80;99.90;;;;;;5144104;27;20191;-54
2022/04/08 11:50:06;;;;;;;0.60;0.60;;;9.30;99.90;;;;;;5143765;27;20276;-60
2022/04/08 11:52:58;;;;;;;0.73;0.60;;;8.80;99.90;;;;;;5145712;27;20194;-62
2022/04/08 11:55:53;;;;;;;0.60;0.60;;;8.60;99.90;;;;;;5144970;27;20286;-58
2022/04/08 11:58:37;;;;;;;0.50;0.50;;;8.40;99.90;;;;;;5143695;27;20244;-58
2022/04/08 12:01:22;;;;;;;0.60;0.60;;;8.50;99.90;;;;;;5145644;27;20303;-59
2022/04/08 12:04:12;;;;;;;1.00;0.70;;;8.60;99.90;;;;;;5143699;27;20194;-64
2022/04/08 12:06:56;;;;;;;0.40;0.40;;;8.70;99.90;;;;;;5143837;27;20202;-61
2022/04/08 12:09:40;;;;;;;0.43;0.43;;;8.60;99.90;;;;;;5145676;27;20190;-61
2022/04/08 12:12:26;;;;;;;0.53;0.53;;;8.60;99.90;;;;;;5143242;27;20291;-60
2022/04/08 12:15:11;;;;;;;0.40;0.40;;;8.80;99.90;;;;;;5144620;27;20199;-61
2022/04/08 12:18:06;;;;;;;0.87;0.80;;;8.80;99.90;;;;;;5145459;27;20239;-60
2022/04/08 12:20:59;;;;;;;0.63;0.63;;;8.60;99.90;;;;;;5142524;27;20284;-60
2022/04/08 12:23:43;;;;;;;2.33;1.03;;;8.60;99.90;;;;;;5144769;27;20187;-58
2022/04/08 12:26:32;;;;;;;0.70;0.60;;;8.40;99.90;;;;;;5145187;27;20194;-61
2022/04/08 12:29:16;;;;;;;2.47;0.80;;;8.20;99.90;;;;;;5143432;27;20664;-59
2022/04/08 12:32:02;;;;;;;0.80;0.80;;;8.20;99.90;;;;;;5145118;27;20272;-61
2022/04/08 12:34:46;;;;;;;0.93;0.87;;;8.20;99.90;;;;;;5145148;27;20199;-61
2022/04/08 12:37:30;;;;;;;2.77;0.80;;;8.30;99.90;;;;;;5143029;27;20230;-61
2022/04/08 12:40:14;;;;;;;1.70;0.40;;;8.30;99.90;;;;;;5145246;27;20251;-61
2022/04/08 12:43:02;;;;;;;0.40;0.40;;;8.30;99.90;;;;;;5142996;27;20230;-62
2022/04/08 12:45:46;;;;;;;0.60;0.47;;;8.30;99.90;;;;;;5142858;27;20195;-62
2022/04/08 12:48:33;;;;;;;0.50;0.50;;;8.30;99.90;;;;;;5145580;27;20191;-62
2022/04/08 12:51:18;;;;;;;0.90;0.40;;;8.20;99.90;;;;;;5142126;27;20271;-62
2022/04/08 12:54:03;;;;;;;0.33;0.33;;;8.10;99.90;;;;;;5145102;27;20182;-61
2022/04/08 12:56:47;;;;;;;0.20;0.20;;;8.10;99.90;;;;;;5149817;27;20194;-62
2022/04/08 12:59:32;;;;;;;0.67;0.30;;;8.00;99.90;;;;;;5146559;27;20191;-62
2022/04/08 13:02:16;;;;;;;0.50;0.50;;;8.10;99.90;;;;;;5148885;27;20218;-64
2022/04/08 13:05:00;;;;;;;0.40;0.40;;;8.00;99.90;;;;;;5148276;27;20308;-62
2022/04/08 13:07:44;;;;;;;0.97;0.57;;;8.00;99.90;;;;;;5146053;27;20198;-63
2022/04/08 13:10:30;;;;;;;0.60;0.60;;;8.00;99.90;;;;;;5149495;27;20250;-62
2022/04/08 13:13:14;;;;;;;7.00;2.90;;;8.00;99.90;;;;;;5146758;27;20263;-62
2022/04/08 13:15:58;;;;;;;0.93;0.73;;;8.10;99.90;;;;;;5147120;27;20329;-63
2022/04/08 13:18:43;;;;;;;0.70;0.70;;;8.10;99.90;;;;;;5149495;27;20244;-63
2022/04/08 13:21:27;;;;;;;0.33;0.33;;;8.10;99.90;;;;;;5146147;27;20218;-63
2022/04/08 13:24:11;;;;;;;8.10;3.80;;;8.10;99.90;;;;;;5148015;27;20222;-64
2022/04/08 13:26:55;;;;;;;3.80;2.60;;;8.30;99.90;;;;;;5149173;27;20237;-64
2022/04/08 13:29:39;;;;;;;0.73;0.73;;;8.30;99.90;;;;;;5146282;27;20187;-62
2022/04/08 13:32:24;;;;;;;1.20;1.03;;;8.20;99.90;;;;;;5148557;27;20198;-63
2022/04/08 13:35:09;;;;;;;1.20;0.80;;;8.20;99.90;;;;;;5147529;27;20183;-63
2022/04/08 13:37:53;;;;;;;0.37;0.37;;;8.20;99.90;;;;;;5145915;27;20194;-62
2022/04/08 13:40:38;;;;;;;0.77;0.50;;;8.10;99.90;;;;;;5148449;27;20230;-62
2022/04/08 13:43:22;;;;;;;0.80;0.77;;;8.20;99.90;;;;;;5146144;27;20210;-62
2022/04/08 13:46:07;;;;;;;0.83;0.83;;;8.30;99.90;;;;;;5146856;27;20226;-63
2022/04/08 13:48:52;;;;;;;0.60;0.60;;;8.10;99.90;;;;;;5149008;27;20195;-63
2022/04/08 13:51:37;;;;;;;0.70;0.70;;;8.00;99.90;;;;;;5146366;27;20556;-63
2022/04/08 13:54:21;;;;;;;5.87;0.63;;;7.90;99.90;;;;;;5147311;27;20214;-63
2022/04/08 13:57:05;;;;;;;0.53;0.53;;;7.80;99.90;;;;;;5148335;27;20244;-63
2022/04/08 13:59:50;;;;;;;0.63;0.40;;;7.70;99.90;;;;;;5145592;27;20329;-62
2022/04/08 14:02:37;;;;;;;0.60;0.60;;;7.80;99.90;;;;;;5147494;27;20305;-62
2022/04/08 14:05:21;;;;;;;0.80;0.80;;;7.70;99.90;;;;;;5146366;27;20203;-62
2022/04/08 14:08:08;;;;;;;1.13;0.47;;;7.60;99.90;;;;;;5145081;27;20194;-61
2022/04/08 14:10:53;;;;;;;0.70;0.70;;;7.60;99.90;;;;;;5147711;27;20199;-63
2022/04/08 14:13:37;;;;;;;0.73;0.73;;;7.50;99.90;;;;;;5146199;27;20240;-61
2022/04/08 14:16:22;;;;;;;1.17;1.07;;;7.60;99.90;;;;;;5146477;27;20321;-61
2022/04/08 14:19:06;;;;;;;1.07;0.47;;;7.50;99.90;;;;;;5148495;27;20276;-63
2022/04/08 14:21:51;;;;;;;0.27;0.27;;;7.60;99.90;;;;;;5128000;27;20745;-66
2022/04/08 14:24:36;;;;;;;0.70;0.70;;;7.50;99.90;;;;;;5112057;27;20206;-53
2022/04/08 14:27:20;;;;;;;0.67;0.67;;;7.50;99.90;;;;;;5126617;27;20241;-66
2022/04/08 14:30:06;;;;;;;5.77;0.83;;;7.50;99.90;;;;;;5126515;27;20218;-58
2022/04/08 14:32:50;;;;;;;0.53;0.53;;;7.40;99.90;;;;;;5117172;27;20238;-67